sensor_id;sensor_type;location;lat;lon;timestamp;P1;durP1;ratioP1;P2;durP2;ratioP2
30420;SDS011;17218;54.070;10.012;2023-03-23T00:01:21;23.40;;;15.32;;
30420;SDS011;17218;54.070;10.012;2023-03-23T00:03:51;24.90;;;15.98;;
30420;SDS011;17218;54.070;10.012;2023-03-23T00:06:21;21.25;;;15.93;;
30420;SDS011;17218;54.070;10.012;2023-03-23T00:08:51;21.48;;;15.85;;
30420;SDS011;17218;54.070;10.012;2023-03-23T00:11:22;20.70;;;15.70;;
30420;SDS011;17218;54.070;10.012;2023-03-23T00:13:51;24.80;;;16.52;;
30420;SDS011;17218;54.070;10.012;2023-03-23T00:16:19;22.10;;;15.25;;
30420;SDS011;17218;54.070;10.012;2023-03-23T00:18:54;23.58;;;15.77;;
30420;SDS011;17218;54.070;10.012;2023-03-23T00:21:22;22.48;;;16.50;;
30420;SDS011;17218;54.070;10.012;2023-03-23T00:24:00;23.52;;;17.27;;
30420;SDS011;17218;54.070;10.012;2023-03-23T00:26:27;22.42;;;16.67;;
30420;SDS011;17218;54.070;10.012;2023-03-23T00:28:54;25.10;;;17.40;;
30420;SDS011;17218;54.070;10.012;2023-03-23T00:31:25;24.88;;;17.17;;
30420;SDS011;17218;54.070;10.012;2023-03-23T00:33:57;26.17;;;17.80;;
30420;SDS011;17218;54.070;10.012;2023-03-23T00:36:26;25.52;;;16.77;;
30420;SDS011;17218;54.070;10.012;2023-03-23T00:38:53;23.83;;;17.00;;
30420;SDS011;17218;54.070;10.012;2023-03-23T00:41:24;22.98;;;17.67;;
30420;SDS011;17218;54.070;10.012;2023-03-23T00:43:51;26.05;;;17.63;;
30420;SDS011;17218;54.070;10.012;2023-03-23T00:46:18;28.35;;;18.70;;
30420;SDS011;17218;54.070;10.012;2023-03-23T00:48:45;25.48;;;17.55;;
30420;SDS011;17218;54.070;10.012;2023-03-23T00:51:12;26.88;;;19.55;;
30420;SDS011;17218;54.070;10.012;2023-03-23T00:53:39;28.52;;;18.20;;
30420;SDS011;17218;54.070;10.012;2023-03-23T00:56:06;25.38;;;18.50;;
30420;SDS011;17218;54.070;10.012;2023-03-23T00:58:35;24.02;;;17.50;;
30420;SDS011;17218;54.070;10.012;2023-03-23T01:01:02;26.77;;;17.80;;
30420;SDS011;17218;54.070;10.012;2023-03-23T01:03:28;24.40;;;17.42;;
30420;SDS011;17218;54.070;10.012;2023-03-23T01:05:55;26.98;;;17.90;;
30420;SDS011;17218;54.070;10.012;2023-03-23T01:08:22;27.20;;;18.80;;
30420;SDS011;17218;54.070;10.012;2023-03-23T01:10:50;30.02;;;18.05;;
30420;SDS011;17218;54.070;10.012;2023-03-23T01:13:18;24.40;;;17.98;;
30420;SDS011;17218;54.070;10.012;2023-03-23T01:15:49;29.10;;;17.95;;
30420;SDS011;17218;54.070;10.012;2023-03-23T01:18:15;25.85;;;17.85;;
30420;SDS011;17218;54.070;10.012;2023-03-23T01:20:42;24.77;;;18.48;;
30420;SDS011;17218;54.070;10.012;2023-03-23T01:23:08;24.70;;;17.00;;
30420;SDS011;17218;54.070;10.012;2023-03-23T01:25:35;27.27;;;17.67;;
30420;SDS011;17218;54.070;10.012;2023-03-23T01:28:02;22.02;;;16.20;;
30420;SDS011;17218;54.070;10.012;2023-03-23T01:30:29;25.00;;;17.60;;
30420;SDS011;17218;54.070;10.012;2023-03-23T01:32:57;21.10;;;16.10;;
30420;SDS011;17218;54.070;10.012;2023-03-23T01:35:23;23.42;;;15.57;;
30420;SDS011;17218;54.070;10.012;2023-03-23T01:37:50;17.05;;;14.35;;
30420;SDS011;17218;54.070;10.012;2023-03-23T01:40:16;21.25;;;15.07;;
30420;SDS011;17218;54.070;10.012;2023-03-23T01:42:43;19.38;;;14.82;;
30420;SDS011;17218;54.070;10.012;2023-03-23T01:48:05;11.23;;;8.57;;
30420;SDS011;17218;54.070;10.012;2023-03-23T01:50:37;12.27;;;8.85;;
30420;SDS011;17218;54.070;10.012;2023-03-23T01:53:10;14.98;;;11.70;;
30420;SDS011;17218;54.070;10.012;2023-03-23T01:55:38;18.23;;;12.52;;
30420;SDS011;17218;54.070;10.012;2023-03-23T01:58:06;14.13;;;10.90;;
30420;SDS011;17218;54.070;10.012;2023-03-23T02:00:34;15.05;;;11.43;;
30420;SDS011;17218;54.070;10.012;2023-03-23T02:03:02;15.85;;;11.55;;
30420;SDS011;17218;54.070;10.012;2023-03-23T02:05:31;16.45;;;12.15;;
30420;SDS011;17218;54.070;10.012;2023-03-23T02:08:00;17.77;;;13.63;;
30420;SDS011;17218;54.070;10.012;2023-03-23T02:10:29;19.58;;;13.82;;
30420;SDS011;17218;54.070;10.012;2023-03-23T02:12:56;18.52;;;14.15;;
30420;SDS011;17218;54.070;10.012;2023-03-23T02:15:23;18.02;;;12.95;;
30420;SDS011;17218;54.070;10.012;2023-03-23T02:17:53;15.45;;;11.85;;
30420;SDS011;17218;54.070;10.012;2023-03-23T02:20:36;12.45;;;9.25;;
30420;SDS011;17218;54.070;10.012;2023-03-23T02:23:19;14.52;;;9.13;;
30420;SDS011;17218;54.070;10.012;2023-03-23T02:26:00;10.98;;;8.27;;
30420;SDS011;17218;54.070;10.012;2023-03-23T02:28:42;9.95;;;7.60;;
30420;SDS011;17218;54.070;10.012;2023-03-23T02:31:29;11.52;;;7.55;;
30420;SDS011;17218;54.070;10.012;2023-03-23T02:34:10;10.02;;;6.40;;
30420;SDS011;17218;54.070;10.012;2023-03-23T02:36:44;10.35;;;7.03;;
30420;SDS011;17218;54.070;10.012;2023-03-23T02:39:17;8.32;;;6.20;;
30420;SDS011;17218;54.070;10.012;2023-03-23T02:41:48;7.65;;;5.68;;
30420;SDS011;17218;54.070;10.012;2023-03-23T02:44:18;6.90;;;5.03;;
30420;SDS011;17218;54.070;10.012;2023-03-23T02:46:45;6.95;;;4.47;;
30420;SDS011;17218;54.070;10.012;2023-03-23T02:49:15;5.38;;;4.13;;
30420;SDS011;17218;54.070;10.012;2023-03-23T02:51:44;6.20;;;4.85;;
30420;SDS011;17218;54.070;10.012;2023-03-23T02:54:13;4.38;;;3.97;;
30420;SDS011;17218;54.070;10.012;2023-03-23T02:56:43;5.03;;;4.30;;
30420;SDS011;17218;54.070;10.012;2023-03-23T02:59:11;5.78;;;4.75;;
30420;SDS011;17218;54.070;10.012;2023-03-23T03:01:55;6.47;;;4.70;;
30420;SDS011;17218;54.070;10.012;2023-03-23T03:04:26;5.72;;;4.70;;
30420;SDS011;17218;54.070;10.012;2023-03-23T03:09:50;6.65;;;5.00;;
30420;SDS011;17218;54.070;10.012;2023-03-23T03:12:20;8.40;;;6.18;;
30420;SDS011;17218;54.070;10.012;2023-03-23T03:14:56;8.45;;;6.45;;
30420;SDS011;17218;54.070;10.012;2023-03-23T03:17:27;9.32;;;6.97;;
30420;SDS011;17218;54.070;10.012;2023-03-23T03:19:59;8.90;;;7.13;;
30420;SDS011;17218;54.070;10.012;2023-03-23T03:22:31;9.93;;;7.20;;
30420;SDS011;17218;54.070;10.012;2023-03-23T03:25:02;11.27;;;7.35;;
30420;SDS011;17218;54.070;10.012;2023-03-23T03:27:31;11.07;;;7.65;;
30420;SDS011;17218;54.070;10.012;2023-03-23T03:29:59;11.32;;;7.57;;
30420;SDS011;17218;54.070;10.012;2023-03-23T03:32:31;11.23;;;7.60;;
30420;SDS011;17218;54.070;10.012;2023-03-23T03:35:05;9.68;;;7.13;;
30420;SDS011;17218;54.070;10.012;2023-03-23T03:37:33;11.70;;;7.32;;
30420;SDS011;17218;54.070;10.012;2023-03-23T03:40:02;10.45;;;6.70;;
30420;SDS011;17218;54.070;10.012;2023-03-23T03:42:35;7.40;;;5.03;;
30420;SDS011;17218;54.070;10.012;2023-03-23T03:45:02;6.18;;;4.57;;
30420;SDS011;17218;54.070;10.012;2023-03-23T03:47:29;5.22;;;4.07;;
30420;SDS011;17218;54.070;10.012;2023-03-23T03:49:55;5.28;;;3.00;;
30420;SDS011;17218;54.070;10.012;2023-03-23T03:52:23;3.05;;;2.20;;
30420;SDS011;17218;54.070;10.012;2023-03-23T03:54:50;2.20;;;1.67;;
30420;SDS011;17218;54.070;10.012;2023-03-23T03:57:16;3.45;;;1.70;;
30420;SDS011;17218;54.070;10.012;2023-03-23T03:59:43;1.88;;;1.42;;
30420;SDS011;17218;54.070;10.012;2023-03-23T04:02:10;1.55;;;1.15;;
30420;SDS011;17218;54.070;10.012;2023-03-23T04:04:39;1.60;;;1.20;;
30420;SDS011;17218;54.070;10.012;2023-03-23T04:07:06;1.67;;;0.88;;
30420;SDS011;17218;54.070;10.012;2023-03-23T04:09:37;1.48;;;0.85;;
30420;SDS011;17218;54.070;10.012;2023-03-23T04:12:04;2.03;;;0.90;;
30420;SDS011;17218;54.070;10.012;2023-03-23T04:14:30;1.00;;;0.70;;
30420;SDS011;17218;54.070;10.012;2023-03-23T04:16:57;1.60;;;0.80;;
30420;SDS011;17218;54.070;10.012;2023-03-23T04:19:24;1.02;;;0.90;;
30420;SDS011;17218;54.070;10.012;2023-03-23T04:21:53;0.57;;;0.57;;
30420;SDS011;17218;54.070;10.012;2023-03-23T04:24:20;0.70;;;0.60;;
30420;SDS011;17218;54.070;10.012;2023-03-23T04:26:50;0.80;;;0.70;;
30420;SDS011;17218;54.070;10.012;2023-03-23T04:29:17;1.02;;;0.93;;
30420;SDS011;17218;54.070;10.012;2023-03-23T04:31:44;0.70;;;0.70;;
30420;SDS011;17218;54.070;10.012;2023-03-23T04:34:10;0.75;;;0.70;;
30420;SDS011;17218;54.070;10.012;2023-03-23T04:36:38;1.17;;;0.80;;
30420;SDS011;17218;54.070;10.012;2023-03-23T04:39:05;1.95;;;1.02;;
30420;SDS011;17218;54.070;10.012;2023-03-23T04:41:35;1.08;;;0.95;;
30420;SDS011;17218;54.070;10.012;2023-03-23T04:44:03;2.33;;;1.40;;
30420;SDS011;17218;54.070;10.012;2023-03-23T04:46:30;1.65;;;1.38;;
30420;SDS011;17218;54.070;10.012;2023-03-23T04:48:56;2.45;;;1.20;;
30420;SDS011;17218;54.070;10.012;2023-03-23T04:58:08;7.32;;;6.30;;
30420;SDS011;17218;54.070;10.012;2023-03-23T05:00:36;13.32;;;9.18;;
30420;SDS011;17218;54.070;10.012;2023-03-23T05:03:03;13.13;;;10.20;;
30420;SDS011;17218;54.070;10.012;2023-03-23T05:05:29;17.48;;;11.80;;
30420;SDS011;17218;54.070;10.012;2023-03-23T05:07:56;16.05;;;12.63;;
30420;SDS011;17218;54.070;10.012;2023-03-23T05:10:29;18.55;;;15.45;;
30420;SDS011;17218;54.070;10.012;2023-03-23T05:12:59;23.30;;;18.02;;
30420;SDS011;17218;54.070;10.012;2023-03-23T05:15:25;24.95;;;20.27;;
30420;SDS011;17218;54.070;10.012;2023-03-23T05:17:53;27.77;;;22.85;;
30420;SDS011;17218;54.070;10.012;2023-03-23T05:20:20;27.27;;;21.25;;
30420;SDS011;17218;54.070;10.012;2023-03-23T05:22:47;36.53;;;24.95;;
30420;SDS011;17218;54.070;10.012;2023-03-23T05:25:14;37.20;;;25.45;;
30420;SDS011;17218;54.070;10.012;2023-03-23T05:27:45;32.75;;;26.02;;
30420;SDS011;17218;54.070;10.012;2023-03-23T05:30:13;29.80;;;24.50;;
30420;SDS011;17218;54.070;10.012;2023-03-23T05:32:41;30.88;;;25.35;;
30420;SDS011;17218;54.070;10.012;2023-03-23T05:35:11;36.08;;;26.02;;
30420;SDS011;17218;54.070;10.012;2023-03-23T05:37:38;35.25;;;27.23;;
30420;SDS011;17218;54.070;10.012;2023-03-23T05:40:05;31.30;;;24.73;;
30420;SDS011;17218;54.070;10.012;2023-03-23T05:42:32;30.65;;;25.02;;
30420;SDS011;17218;54.070;10.012;2023-03-23T05:45:00;32.50;;;24.67;;
30420;SDS011;17218;54.070;10.012;2023-03-23T05:47:27;30.70;;;23.45;;
30420;SDS011;17218;54.070;10.012;2023-03-23T05:49:55;30.13;;;23.80;;
30420;SDS011;17218;54.070;10.012;2023-03-23T05:52:23;28.67;;;22.73;;
30420;SDS011;17218;54.070;10.012;2023-03-23T05:54:50;29.60;;;23.20;;
30420;SDS011;17218;54.070;10.012;2023-03-23T05:57:16;29.98;;;24.33;;
30420;SDS011;17218;54.070;10.012;2023-03-23T05:59:43;27.73;;;22.85;;
30420;SDS011;17218;54.070;10.012;2023-03-23T06:02:10;29.67;;;23.17;;
30420;SDS011;17218;54.070;10.012;2023-03-23T06:04:38;28.20;;;22.00;;
30420;SDS011;17218;54.070;10.012;2023-03-23T06:07:06;27.70;;;21.95;;
30420;SDS011;17218;54.070;10.012;2023-03-23T06:09:34;27.17;;;21.08;;
30420;SDS011;17218;54.070;10.012;2023-03-23T06:12:01;27.38;;;22.83;;
30420;SDS011;17218;54.070;10.012;2023-03-23T06:14:27;27.02;;;22.70;;
30420;SDS011;17218;54.070;10.012;2023-03-23T06:16:53;27.65;;;22.45;;
30420;SDS011;17218;54.070;10.012;2023-03-23T06:19:20;23.92;;;20.50;;
30420;SDS011;17218;54.070;10.012;2023-03-23T06:21:48;25.50;;;21.42;;
30420;SDS011;17218;54.070;10.012;2023-03-23T06:24:14;27.00;;;21.50;;
30420;SDS011;17218;54.070;10.012;2023-03-23T06:26:42;23.80;;;19.98;;
30420;SDS011;17218;54.070;10.012;2023-03-23T06:29:09;27.70;;;21.75;;
30420;SDS011;17218;54.070;10.012;2023-03-23T06:31:37;24.75;;;20.52;;
30420;SDS011;17218;54.070;10.012;2023-03-23T06:34:06;25.98;;;19.20;;
30420;SDS011;17218;54.070;10.012;2023-03-23T06:36:33;22.65;;;18.58;;
30420;SDS011;17218;54.070;10.012;2023-03-23T06:39:00;20.25;;;18.05;;
30420;SDS011;17218;54.070;10.012;2023-03-23T06:41:29;23.27;;;17.25;;
30420;SDS011;17218;54.070;10.012;2023-03-23T06:43:57;19.23;;;17.17;;
30420;SDS011;17218;54.070;10.012;2023-03-23T06:46:23;20.25;;;17.45;;
30420;SDS011;17218;54.070;10.012;2023-03-23T06:48:50;19.80;;;15.52;;
30420;SDS011;17218;54.070;10.012;2023-03-23T06:51:16;21.45;;;15.15;;
30420;SDS011;17218;54.070;10.012;2023-03-23T06:53:43;18.40;;;15.88;;
30420;SDS011;17218;54.070;10.012;2023-03-23T06:56:10;14.95;;;13.45;;
30420;SDS011;17218;54.070;10.012;2023-03-23T06:58:38;15.90;;;13.10;;
30420;SDS011;17218;54.070;10.012;2023-03-23T07:01:06;18.05;;;13.98;;
30420;SDS011;17218;54.070;10.012;2023-03-23T07:03:33;17.73;;;12.68;;
30420;SDS011;17218;54.070;10.012;2023-03-23T07:06:00;14.40;;;12.90;;
30420;SDS011;17218;54.070;10.012;2023-03-23T07:08:26;16.98;;;13.23;;
30420;SDS011;17218;54.070;10.012;2023-03-23T07:10:53;18.17;;;13.00;;
30420;SDS011;17218;54.070;10.012;2023-03-23T07:13:21;16.08;;;13.25;;
30420;SDS011;17218;54.070;10.012;2023-03-23T07:15:48;13.20;;;11.85;;
30420;SDS011;17218;54.070;10.012;2023-03-23T07:18:16;14.48;;;11.60;;
30420;SDS011;17218;54.070;10.012;2023-03-23T07:20:46;12.65;;;11.25;;
30420;SDS011;17218;54.070;10.012;2023-03-23T07:23:13;16.33;;;12.85;;
30420;SDS011;17218;54.070;10.012;2023-03-23T07:25:39;17.02;;;13.07;;
30420;SDS011;17218;54.070;10.012;2023-03-23T07:28:06;15.07;;;13.07;;
30420;SDS011;17218;54.070;10.012;2023-03-23T07:30:32;12.80;;;9.70;;
30420;SDS011;17218;54.070;10.012;2023-03-23T07:32:59;11.63;;;10.05;;
30420;SDS011;17218;54.070;10.012;2023-03-23T07:35:30;10.40;;;8.50;;
30420;SDS011;17218;54.070;10.012;2023-03-23T07:37:58;8.63;;;7.35;;
30420;SDS011;17218;54.070;10.012;2023-03-23T07:40:24;8.60;;;5.80;;
30420;SDS011;17218;54.070;10.012;2023-03-23T07:42:52;7.72;;;4.50;;
30420;SDS011;17218;54.070;10.012;2023-03-23T07:45:20;10.82;;;4.05;;
30420;SDS011;17218;54.070;10.012;2023-03-23T07:47:47;7.30;;;3.42;;
30420;SDS011;17218;54.070;10.012;2023-03-23T07:50:13;6.05;;;3.28;;
30420;SDS011;17218;54.070;10.012;2023-03-23T07:52:41;7.22;;;3.20;;
30420;SDS011;17218;54.070;10.012;2023-03-23T07:55:08;6.13;;;2.80;;
30420;SDS011;17218;54.070;10.012;2023-03-23T07:57:42;6.25;;;3.03;;
30420;SDS011;17218;54.070;10.012;2023-03-23T08:00:09;7.82;;;3.17;;
30420;SDS011;17218;54.070;10.012;2023-03-23T08:02:39;12.75;;;3.53;;
30420;SDS011;17218;54.070;10.012;2023-03-23T08:05:06;6.20;;;2.90;;
30420;SDS011;17218;54.070;10.012;2023-03-23T08:07:33;8.60;;;3.28;;
30420;SDS011;17218;54.070;10.012;2023-03-23T08:10:02;8.30;;;2.22;;
30420;SDS011;17218;54.070;10.012;2023-03-23T08:12:28;7.35;;;2.72;;
30420;SDS011;17218;54.070;10.012;2023-03-23T08:14:55;6.80;;;2.55;;
30420;SDS011;17218;54.070;10.012;2023-03-23T08:17:22;7.22;;;2.10;;
30420;SDS011;17218;54.070;10.012;2023-03-23T08:19:48;8.27;;;2.83;;
30420;SDS011;17218;54.070;10.012;2023-03-23T08:22:17;4.35;;;1.52;;
30420;SDS011;17218;54.070;10.012;2023-03-23T08:24:44;5.10;;;2.40;;
30420;SDS011;17218;54.070;10.012;2023-03-23T08:27:12;7.47;;;2.38;;
30420;SDS011;17218;54.070;10.012;2023-03-23T08:29:38;4.53;;;2.00;;
30420;SDS011;17218;54.070;10.012;2023-03-23T08:32:05;5.57;;;1.90;;
30420;SDS011;17218;54.070;10.012;2023-03-23T08:34:32;6.85;;;1.83;;
30420;SDS011;17218;54.070;10.012;2023-03-23T08:36:58;4.72;;;1.75;;
30420;SDS011;17218;54.070;10.012;2023-03-23T08:39:25;9.77;;;2.15;;
30420;SDS011;17218;54.070;10.012;2023-03-23T08:41:52;13.63;;;2.75;;
30420;SDS011;17218;54.070;10.012;2023-03-23T08:44:20;6.38;;;1.88;;
30420;SDS011;17218;54.070;10.012;2023-03-23T08:46:47;3.78;;;1.95;;
30420;SDS011;17218;54.070;10.012;2023-03-23T08:49:14;3.45;;;1.77;;
30420;SDS011;17218;54.070;10.012;2023-03-23T08:51:41;7.10;;;2.35;;
30420;SDS011;17218;54.070;10.012;2023-03-23T08:54:08;3.90;;;1.67;;
30420;SDS011;17218;54.070;10.012;2023-03-23T08:56:34;4.10;;;1.90;;
30420;SDS011;17218;54.070;10.012;2023-03-23T08:59:01;4.72;;;1.88;;
30420;SDS011;17218;54.070;10.012;2023-03-23T09:01:29;6.85;;;2.22;;
30420;SDS011;17218;54.070;10.012;2023-03-23T09:03:57;6.70;;;2.03;;
30420;SDS011;17218;54.070;10.012;2023-03-23T09:06:23;5.38;;;1.92;;
30420;SDS011;17218;54.070;10.012;2023-03-23T09:08:50;7.43;;;2.30;;
30420;SDS011;17218;54.070;10.012;2023-03-23T09:11:16;7.80;;;2.60;;
30420;SDS011;17218;54.070;10.012;2023-03-23T09:13:43;8.43;;;2.90;;
30420;SDS011;17218;54.070;10.012;2023-03-23T09:16:09;11.57;;;3.67;;
30420;SDS011;17218;54.070;10.012;2023-03-23T09:18:37;11.20;;;2.67;;
30420;SDS011;17218;54.070;10.012;2023-03-23T09:21:04;7.95;;;2.75;;
30420;SDS011;17218;54.070;10.012;2023-03-23T09:23:31;8.43;;;2.00;;
30420;SDS011;17218;54.070;10.012;2023-03-23T09:25:59;10.98;;;2.55;;
30420;SDS011;17218;54.070;10.012;2023-03-23T09:28:26;8.00;;;2.35;;
30420;SDS011;17218;54.070;10.012;2023-03-23T09:30:54;4.47;;;1.77;;
30420;SDS011;17218;54.070;10.012;2023-03-23T09:33:21;8.23;;;2.13;;
30420;SDS011;17218;54.070;10.012;2023-03-23T09:35:49;6.55;;;2.00;;
30420;SDS011;17218;54.070;10.012;2023-03-23T09:38:15;12.68;;;2.42;;
30420;SDS011;17218;54.070;10.012;2023-03-23T09:40:43;10.15;;;2.67;;
30420;SDS011;17218;54.070;10.012;2023-03-23T09:46:19;9.82;;;2.15;;
30420;SDS011;17218;54.070;10.012;2023-03-23T09:48:56;8.65;;;1.70;;
30420;SDS011;17218;54.070;10.012;2023-03-23T09:51:31;6.47;;;1.73;;
30420;SDS011;17218;54.070;10.012;2023-03-23T09:54:09;8.10;;;2.10;;
30420;SDS011;17218;54.070;10.012;2023-03-23T09:56:39;6.70;;;1.75;;
30420;SDS011;17218;54.070;10.012;2023-03-23T09:59:08;10.65;;;1.95;;
30420;SDS011;17218;54.070;10.012;2023-03-23T10:01:41;8.93;;;2.17;;
30420;SDS011;17218;54.070;10.012;2023-03-23T10:04:13;8.38;;;2.15;;
30420;SDS011;17218;54.070;10.012;2023-03-23T10:06:46;7.40;;;1.70;;
30420;SDS011;17218;54.070;10.012;2023-03-23T10:09:14;8.43;;;2.22;;
30420;SDS011;17218;54.070;10.012;2023-03-23T10:11:45;7.47;;;2.25;;
30420;SDS011;17218;54.070;10.012;2023-03-23T10:14:26;6.68;;;2.25;;
30420;SDS011;17218;54.070;10.012;2023-03-23T10:17:11;10.23;;;3.22;;
30420;SDS011;17218;54.070;10.012;2023-03-23T10:19:42;7.82;;;2.13;;
30420;SDS011;17218;54.070;10.012;2023-03-23T10:22:29;11.50;;;2.60;;
30420;SDS011;17218;54.070;10.012;2023-03-23T10:25:01;8.27;;;2.25;;
30420;SDS011;17218;54.070;10.012;2023-03-23T10:27:35;7.22;;;2.30;;
30420;SDS011;17218;54.070;10.012;2023-03-23T10:30:13;8.77;;;2.35;;
30420;SDS011;17218;54.070;10.012;2023-03-23T10:32:44;7.22;;;1.85;;
30420;SDS011;17218;54.070;10.012;2023-03-23T10:35:17;10.57;;;2.50;;
30420;SDS011;17218;54.070;10.012;2023-03-23T10:37:49;8.98;;;2.47;;
30420;SDS011;17218;54.070;10.012;2023-03-23T10:40:19;6.95;;;1.77;;
30420;SDS011;17218;54.070;10.012;2023-03-23T10:42:51;10.93;;;2.80;;
30420;SDS011;17218;54.070;10.012;2023-03-23T10:45:20;6.07;;;2.17;;
30420;SDS011;17218;54.070;10.012;2023-03-23T10:47:51;9.18;;;2.13;;
30420;SDS011;17218;54.070;10.012;2023-03-23T10:50:22;5.93;;;1.63;;
30420;SDS011;17218;54.070;10.012;2023-03-23T10:52:53;8.80;;;1.60;;
30420;SDS011;17218;54.070;10.012;2023-03-23T10:55:23;8.50;;;1.98;;
30420;SDS011;17218;54.070;10.012;2023-03-23T10:57:59;4.75;;;1.70;;
30420;SDS011;17218;54.070;10.012;2023-03-23T11:00:27;7.28;;;2.40;;
30420;SDS011;17218;54.070;10.012;2023-03-23T11:02:59;8.65;;;2.33;;
30420;SDS011;17218;54.070;10.012;2023-03-23T11:05:31;12.35;;;2.33;;
30420;SDS011;17218;54.070;10.012;2023-03-23T11:08:02;9.15;;;2.17;;
30420;SDS011;17218;54.070;10.012;2023-03-23T11:10:34;6.00;;;1.88;;
30420;SDS011;17218;54.070;10.012;2023-03-23T11:13:02;8.07;;;2.13;;
30420;SDS011;17218;54.070;10.012;2023-03-23T11:15:34;8.52;;;1.83;;
30420;SDS011;17218;54.070;10.012;2023-03-23T11:18:04;8.57;;;2.03;;
30420;SDS011;17218;54.070;10.012;2023-03-23T11:20:34;9.27;;;2.15;;
30420;SDS011;17218;54.070;10.012;2023-03-23T11:23:09;7.22;;;2.10;;
30420;SDS011;17218;54.070;10.012;2023-03-23T11:25:53;7.40;;;2.25;;
30420;SDS011;17218;54.070;10.012;2023-03-23T11:28:26;11.85;;;3.17;;
30420;SDS011;17218;54.070;10.012;2023-03-23T11:30:57;13.18;;;2.20;;
30420;SDS011;17218;54.070;10.012;2023-03-23T11:33:28;6.75;;;1.92;;
30420;SDS011;17218;54.070;10.012;2023-03-23T11:35:56;9.52;;;2.95;;
30420;SDS011;17218;54.070;10.012;2023-03-23T11:38:25;11.32;;;2.53;;
30420;SDS011;17218;54.070;10.012;2023-03-23T11:40:53;10.63;;;3.00;;
30420;SDS011;17218;54.070;10.012;2023-03-23T11:43:20;9.77;;;2.50;;
30420;SDS011;17218;54.070;10.012;2023-03-23T11:45:50;10.38;;;2.60;;
30420;SDS011;17218;54.070;10.012;2023-03-23T11:48:26;10.23;;;2.90;;
30420;SDS011;17218;54.070;10.012;2023-03-23T11:50:59;10.02;;;3.10;;
30420;SDS011;17218;54.070;10.012;2023-03-23T11:53:35;8.90;;;2.67;;
30420;SDS011;17218;54.070;10.012;2023-03-23T11:56:11;7.22;;;2.33;;
30420;SDS011;17218;54.070;10.012;2023-03-23T11:58:41;11.30;;;2.78;;
30420;SDS011;17218;54.070;10.012;2023-03-23T12:01:11;8.63;;;2.30;;
30420;SDS011;17218;54.070;10.012;2023-03-23T12:03:52;9.88;;;2.25;;
30420;SDS011;17218;54.070;10.012;2023-03-23T12:06:49;5.15;;;2.00;;
30420;SDS011;17218;54.070;10.012;2023-03-23T12:09:25;9.93;;;2.40;;
30420;SDS011;17218;54.070;10.012;2023-03-23T12:12:09;13.80;;;2.55;;
30420;SDS011;17218;54.070;10.012;2023-03-23T12:14:43;9.82;;;2.60;;
30420;SDS011;17218;54.070;10.012;2023-03-23T12:17:20;9.40;;;2.25;;
30420;SDS011;17218;54.070;10.012;2023-03-23T12:19:58;8.48;;;2.20;;
30420;SDS011;17218;54.070;10.012;2023-03-23T12:22:38;12.07;;;3.10;;
30420;SDS011;17218;54.070;10.012;2023-03-23T12:25:16;11.90;;;2.70;;
30420;SDS011;17218;54.070;10.012;2023-03-23T12:27:51;11.98;;;3.30;;
30420;SDS011;17218;54.070;10.012;2023-03-23T12:30:25;11.27;;;2.60;;
30420;SDS011;17218;54.070;10.012;2023-03-23T12:33:08;13.60;;;3.05;;
30420;SDS011;17218;54.070;10.012;2023-03-23T12:35:52;8.15;;;2.38;;
30420;SDS011;17218;54.070;10.012;2023-03-23T12:38:41;14.73;;;2.92;;
30420;SDS011;17218;54.070;10.012;2023-03-23T12:41:20;12.40;;;3.50;;
30420;SDS011;17218;54.070;10.012;2023-03-23T12:43:53;8.52;;;2.65;;
30420;SDS011;17218;54.070;10.012;2023-03-23T12:49:17;10.43;;;3.30;;
30420;SDS011;17218;54.070;10.012;2023-03-23T12:51:48;11.02;;;3.10;;
30420;SDS011;17218;54.070;10.012;2023-03-23T12:54:25;12.50;;;2.72;;
30420;SDS011;17218;54.070;10.012;2023-03-23T12:56:59;11.95;;;3.00;;
30420;SDS011;17218;54.070;10.012;2023-03-23T12:59:32;13.10;;;3.25;;
30420;SDS011;17218;54.070;10.012;2023-03-23T13:02:09;7.57;;;2.58;;
30420;SDS011;17218;54.070;10.012;2023-03-23T13:04:43;10.57;;;2.83;;
30420;SDS011;17218;54.070;10.012;2023-03-23T13:07:14;10.23;;;3.40;;
30420;SDS011;17218;54.070;10.012;2023-03-23T13:09:46;7.75;;;3.05;;
30420;SDS011;17218;54.070;10.012;2023-03-23T13:12:18;9.20;;;3.47;;
30420;SDS011;17218;54.070;10.012;2023-03-23T13:14:47;7.43;;;3.35;;
30420;SDS011;17218;54.070;10.012;2023-03-23T13:17:25;7.78;;;3.20;;
30420;SDS011;17218;54.070;10.012;2023-03-23T13:20:03;12.18;;;3.30;;
30420;SDS011;17218;54.070;10.012;2023-03-23T13:22:44;11.95;;;3.17;;
30420;SDS011;17218;54.070;10.012;2023-03-23T13:25:17;12.18;;;3.10;;
30420;SDS011;17218;54.070;10.012;2023-03-23T13:27:57;11.40;;;3.47;;
30420;SDS011;17218;54.070;10.012;2023-03-23T13:30:25;12.65;;;3.63;;
30420;SDS011;17218;54.070;10.012;2023-03-23T13:33:00;9.95;;;2.45;;
30420;SDS011;17218;54.070;10.012;2023-03-23T13:35:32;10.73;;;2.90;;
30420;SDS011;17218;54.070;10.012;2023-03-23T13:38:01;13.10;;;3.50;;
30420;SDS011;17218;54.070;10.012;2023-03-23T13:40:28;12.32;;;3.00;;
30420;SDS011;17218;54.070;10.012;2023-03-23T13:42:58;7.85;;;2.60;;
30420;SDS011;17218;54.070;10.012;2023-03-23T13:45:36;11.50;;;3.25;;
30420;SDS011;17218;54.070;10.012;2023-03-23T13:48:18;10.48;;;2.60;;
30420;SDS011;17218;54.070;10.012;2023-03-23T13:50:49;9.82;;;2.72;;
30420;SDS011;17218;54.070;10.012;2023-03-23T13:53:23;9.00;;;2.38;;
30420;SDS011;17218;54.070;10.012;2023-03-23T13:56:07;10.18;;;2.75;;
30420;SDS011;17218;54.070;10.012;2023-03-23T13:58:47;11.68;;;3.42;;
30420;SDS011;17218;54.070;10.012;2023-03-23T14:01:18;10.57;;;3.10;;
30420;SDS011;17218;54.070;10.012;2023-03-23T14:03:58;10.48;;;2.97;;
30420;SDS011;17218;54.070;10.012;2023-03-23T14:06:26;10.00;;;3.13;;
30420;SDS011;17218;54.070;10.012;2023-03-23T14:09:04;10.48;;;3.10;;
30420;SDS011;17218;54.070;10.012;2023-03-23T14:11:34;14.73;;;3.67;;
30420;SDS011;17218;54.070;10.012;2023-03-23T14:14:17;12.05;;;3.42;;
30420;SDS011;17218;54.070;10.012;2023-03-23T14:16:49;10.02;;;3.28;;
30420;SDS011;17218;54.070;10.012;2023-03-23T14:19:18;10.20;;;3.40;;
30420;SDS011;17218;54.070;10.012;2023-03-23T14:21:52;8.75;;;3.10;;
30420;SDS011;17218;54.070;10.012;2023-03-23T14:24:21;11.07;;;2.75;;
30420;SDS011;17218;54.070;10.012;2023-03-23T14:26:49;9.63;;;3.15;;
30420;SDS011;17218;54.070;10.012;2023-03-23T14:29:19;8.63;;;2.95;;
30420;SDS011;17218;54.070;10.012;2023-03-23T14:31:49;12.02;;;3.80;;
30420;SDS011;17218;54.070;10.012;2023-03-23T14:34:20;13.43;;;3.55;;
30420;SDS011;17218;54.070;10.012;2023-03-23T14:36:49;15.60;;;4.10;;
30420;SDS011;17218;54.070;10.012;2023-03-23T14:39:19;14.32;;;3.58;;
30420;SDS011;17218;54.070;10.012;2023-03-23T14:41:47;16.33;;;4.07;;
30420;SDS011;17218;54.070;10.012;2023-03-23T14:44:16;10.52;;;3.40;;
30420;SDS011;17218;54.070;10.012;2023-03-23T14:46:48;9.50;;;3.17;;
30420;SDS011;17218;54.070;10.012;2023-03-23T14:49:16;11.30;;;3.65;;
30420;SDS011;17218;54.070;10.012;2023-03-23T14:51:48;12.02;;;4.10;;
30420;SDS011;17218;54.070;10.012;2023-03-23T14:54:18;13.25;;;3.13;;
30420;SDS011;17218;54.070;10.012;2023-03-23T14:56:47;9.30;;;3.72;;
30420;SDS011;17218;54.070;10.012;2023-03-23T14:59:14;10.32;;;3.38;;